Time;durP1;ratioP1;P1;durP2;ratioP2;P2;SDS_P1;SDS_P2;PMS_P1;PMS_P2;Temp;Humidity;BMP_temperature;BMP_pressure;BME280_temperature;BME280_humidity;BME280_pressure;Samples;Min_cycle;Max_cycle;Signal;HPM_P1;HPM_P2
2022/07/23 00:02:18;;;;;;;24.33;12.82;;;;;;;17.63;83.24;100111.50;5077105;28;20711;-84
2022/07/23 00:04:43;;;;;;;16.92;9.45;;;;;;;17.57;83.72;100115.47;5076710;28;20035;-84
2022/07/23 00:07:09;;;;;;;22.77;12.37;;;;;;;17.34;85.68;100116.13;5076442;28;20028;-85
2022/07/23 00:09:34;;;;;;;23.80;11.90;;;;;;;17.49;85.55;100120.53;5076787;28;20257;-85
2022/07/23 00:11:59;;;;;;;18.70;10.93;;;;;;;17.52;85.76;100119.13;5076548;28;20036;-85
2022/07/23 00:14:25;;;;;;;22.67;14.98;;;;;;;17.55;85.88;100113.03;5076154;28;20741;-85
2022/07/23 00:16:50;;;;;;;23.00;13.13;;;;;;;17.51;86.12;100109.25;5076479;28;20370;-85
2022/07/23 00:19:15;;;;;;;21.88;11.90;;;;;;;17.60;85.44;100107.41;5076732;28;20250;-85
2022/07/23 00:21:41;;;;;;;25.05;11.35;;;;;;;17.52;85.40;100099.84;5076393;28;20040;-85
2022/07/23 00:24:06;;;;;;;19.88;10.70;;;;;;;17.42;85.56;100091.75;5076889;28;20024;-85
2022/07/23 00:26:31;;;;;;;23.95;9.93;;;;;;;17.28;85.86;100100.81;5077214;28;20021;-85
2022/07/23 00:28:57;;;;;;;23.20;11.52;;;;;;;17.33;86.28;100097.94;5076237;28;20106;-84
2022/07/23 00:31:22;;;;;;;22.70;12.40;;;;;;;17.24;86.03;100086.81;5076266;28;20056;-84
2022/07/23 00:33:47;;;;;;;18.73;10.23;;;;;;;17.09;86.95;100085.09;5076230;28;20636;-84
2022/07/23 00:36:12;;;;;;;20.77;11.47;;;;;;;17.10;87.05;100089.50;5076748;28;20035;-84
2022/07/23 00:38:38;;;;;;;19.95;11.85;;;;;;;17.25;87.44;100101.41;5076639;28;20264;-84
2022/07/23 00:41:03;;;;;;;18.80;11.60;;;;;;;17.37;86.12;100101.75;5076208;28;20027;-84
2022/07/23 00:43:28;;;;;;;21.05;11.60;;;;;;;17.37;86.21;100098.97;5075856;28;20374;-84
2022/07/23 00:45:54;;;;;;;20.10;11.43;;;;;;;17.36;85.80;100091.84;5075900;28;20025;-84
2022/07/23 00:48:19;;;;;;;18.53;10.57;;;;;;;17.37;85.80;100085.22;5076289;28;20024;-84
2022/07/23 00:50:44;;;;;;;23.23;13.73;;;;;;;17.47;85.74;100083.41;5076421;28;20256;-84
2022/07/23 00:53:11;;;;;;;21.88;11.45;;;;;;;17.35;86.46;100081.13;5075855;28;20336;-84
2022/07/23 00:55:37;;;;;;;20.15;10.50;;;;;;;17.41;86.27;100092.88;5075740;28;20107;-84
2022/07/23 00:58:02;;;;;;;18.55;11.30;;;;;;;17.38;86.57;100078.59;5075632;28;20107;-84
2022/07/23 01:00:28;;;;;;;22.20;11.43;;;;;;;17.33;86.74;100073.16;5075719;28;20173;-83
2022/07/23 01:02:53;;;;;;;19.92;11.85;;;;;;;17.29;87.17;100074.09;5076090;28;20031;-84
2022/07/23 01:05:21;;;;;;;21.60;12.00;;;;;;;17.30;87.30;100072.94;5075129;28;20036;-83
2022/07/23 01:07:50;;;;;;;21.10;12.70;;;;;;;17.14;87.43;100074.06;5076643;28;20341;-83
2022/07/23 01:10:31;;;;;;;26.00;12.82;;;;;;;17.15;87.59;100080.34;5076317;28;20126;-84
2022/07/23 01:12:57;;;;;;;25.80;12.77;;;;;;;17.24;87.68;100078.56;5075709;28;20048;-84
2022/07/23 01:15:23;;;;;;;23.60;13.48;;;;;;;17.24;87.57;100080.50;5075188;28;20054;-84
2022/07/23 01:17:49;;;;;;;26.40;16.75;;;;;;;17.27;87.22;100082.63;5075309;28;20020;-83
2022/07/23 01:20:15;;;;;;;25.50;13.48;;;;;;;17.27;87.49;100071.59;5075822;28;20028;-83
2022/07/23 01:22:40;;;;;;;27.67;13.77;;;;;;;17.22;87.52;100077.22;5075180;28;20055;-83
2022/07/23 01:25:06;;;;;;;22.75;14.75;;;;;;;17.25;87.98;100074.66;5075937;28;20555;-83
2022/07/23 01:27:31;;;;;;;28.92;14.57;;;;;;;17.37;87.04;100076.94;5074851;28;20024;-83
2022/07/23 01:29:59;;;;;;;32.80;15.47;;;;;;;17.27;87.77;100066.09;5075241;28;20048;-83
2022/07/23 01:32:24;;;;;;;29.95;17.33;;;;;;;17.21;87.70;100070.06;5074564;28;20249;-84
2022/07/23 01:34:50;;;;;;;28.85;16.33;;;;;;;17.26;88.46;100076.31;5075573;28;20021;-83
2022/07/23 01:37:15;;;;;;;24.42;14.68;;;;;;;17.26;88.01;100081.84;5074911;28;20051;-83
2022/07/23 01:39:40;;;;;;;23.33;14.53;;;;;;;17.32;87.69;100084.47;5074886;28;20083;-83
2022/07/23 01:42:05;;;;;;;27.57;13.77;;;;;;;17.37;87.23;100082.44;5075139;28;20340;-83
2022/07/23 01:44:31;;;;;;;24.77;14.23;;;;;;;17.36;87.82;100074.50;5074938;28;20753;-83
2022/07/23 01:46:56;;;;;;;29.50;16.43;;;;;;;17.29;87.62;100071.31;5075500;28;20025;-83
2022/07/23 01:49:22;;;;;;;26.13;13.52;;;;;;;17.31;87.22;100067.13;5074643;28;20260;-83
2022/07/23 01:52:02;;;;;;;36.28;16.80;;;;;;;17.22;87.76;100063.44;5074744;28;20029;-83
2022/07/23 01:54:29;;;;;;;26.92;15.25;;;;;;;17.25;87.67;100068.34;5075315;28;20032;-83
2022/07/23 01:56:55;;;;;;;32.10;15.77;;;;;;;17.20;87.80;100065.69;5074460;28;20503;-83
2022/07/23 01:59:21;;;;;;;29.20;16.10;;;;;;;17.22;88.37;100063.44;5074971;28;20020;-83
2022/07/23 02:01:46;;;;;;;28.65;16.15;;;;;;;17.23;88.17;100054.88;5074287;28;20028;-83
2022/07/23 02:04:12;;;;;;;27.52;15.25;;;;;;;17.25;88.49;100057.31;5075192;28;20191;-83
2022/07/23 02:06:37;;;;;;;25.67;14.13;;;;;;;17.24;88.25;100056.53;5073532;28;20369;-83
2022/07/23 02:09:02;;;;;;;30.63;15.33;;;;;;;17.31;87.95;100050.59;5075183;28;20353;-83
2022/07/23 02:11:27;;;;;;;31.15;16.23;;;;;;;17.15;88.45;100053.63;5074015;28;20257;-83
2022/07/23 02:13:53;;;;;;;35.10;16.38;;;;;;;17.08;88.99;100052.38;5074555;28;20063;-83
2022/07/23 02:16:18;;;;;;;33.70;18.45;;;;;;;17.11;88.38;100046.25;5074262;28;20031;-83
2022/07/23 02:18:44;;;;;;;30.08;16.02;;;;;;;17.04;89.13;100046.66;5075288;28;20024;-83
2022/07/23 02:21:09;;;;;;;38.50;17.02;;;;;;;17.02;88.84;100062.66;5074131;28;20432;-83
2022/07/23 02:23:35;;;;;;;32.97;16.80;;;;;;;16.99;88.86;100052.22;5074928;28;20028;-83
2022/07/23 02:26:00;;;;;;;27.23;15.00;;;;;;;17.07;88.37;100059.81;5074420;28;20369;-83
2022/07/23 02:28:25;;;;;;;39.35;19.52;;;;;;;17.05;87.74;100059.28;5074790;28;20032;-83
2022/07/23 02:30:51;;;;;;;29.65;17.98;;;;;;;17.09;86.93;100065.84;5074392;28;20465;-84
2022/07/23 02:33:16;;;;;;;32.38;15.38;;;;;;;16.92;88.03;100074.66;5074789;28;20031;-83
2022/07/23 02:35:41;;;;;;;29.48;16.52;;;;;;;16.83;88.68;100069.00;5074821;28;20020;-84
2022/07/23 02:38:06;;;;;;;38.20;22.03;;;;;;;16.67;88.76;100062.94;5074622;28;20511;-84
2022/07/23 02:40:32;;;;;;;47.53;21.83;;;;;;;16.62;89.14;100058.31;5074389;28;20254;-83
2022/07/23 02:42:57;;;;;;;39.25;21.45;;;;;;;16.46;89.38;100054.97;5074512;28;20361;-83
2022/07/23 02:45:23;;;;;;;44.13;18.67;;;;;;;16.54;89.49;100045.22;5074185;28;20458;-83
2022/07/23 02:47:48;;;;;;;31.25;18.75;;;;;;;16.62;89.47;100052.81;5074110;28;20322;-84
2022/07/23 02:50:13;;;;;;;33.30;16.93;;;;;;;16.55;88.99;100049.63;5074793;28;20020;-83
2022/07/23 02:52:39;;;;;;;42.15;18.33;;;;;;;16.50;88.63;100055.19;5074123;28;20356;-84
2022/07/23 02:55:05;;;;;;;39.55;20.13;;;;;;;16.45;88.86;100062.41;5074384;28;20103;-84
2022/07/23 02:57:30;;;;;;;25.00;13.73;;;;;;;16.53;88.42;100052.69;5074068;28;20029;-84
2022/07/23 02:59:55;;;;;;;31.03;16.77;;;;;;;16.64;87.95;100058.84;5074535;28;20112;-84
2022/07/23 03:02:21;;;;;;;29.02;16.73;;;;;;;16.50;87.50;100067.03;5073173;28;20250;-84
2022/07/23 03:04:46;;;;;;;25.65;15.05;;;;;;;16.41;87.66;100061.38;5073567;28;20028;-84
2022/07/23 03:07:12;;;;;;;26.30;14.98;;;;;;;16.25;88.18;100068.22;5084597;28;20020;-84
2022/07/23 03:09:37;;;;;;;31.27;15.45;;;;;;;16.17;89.06;100073.25;5094185;28;20032;-84
2022/07/23 03:12:03;;;;;;;32.27;17.30;;;;;;;16.14;88.72;100079.34;5093906;28;20032;-84
2022/07/23 03:14:28;;;;;;;28.15;16.05;;;;;;;16.20;89.89;100078.16;5095037;28;20334;-84
2022/07/23 03:16:54;;;;;;;30.47;16.73;;;;;;;16.34;90.06;100069.16;5094351;28;20024;-84
2022/07/23 03:19:19;;;;;;;27.20;15.00;;;;;;;16.48;90.82;100060.16;5094635;28;20760;-84
2022/07/23 03:21:44;;;;;;;37.85;18.35;;;;;;;16.59;90.07;100047.91;5094117;28;20384;-84
2022/07/23 03:24:10;;;;;;;34.47;17.20;;;;;;;16.60;90.10;100055.03;5094074;28;20365;-84
2022/07/23 03:26:36;;;;;;;46.83;21.08;;;;;;;16.53;89.59;100060.09;5094590;28;20031;-84
2022/07/23 03:29:03;;;;;;;25.40;15.20;;;;;;;16.59;90.01;100053.41;5097701;28;20465;-84
2022/07/23 03:31:29;;;;;;;39.65;19.23;;;;;;;16.39;89.16;100055.34;5098467;28;20411;-83
2022/07/23 03:33:54;;;;;;;40.20;19.00;;;;;;;16.33;89.90;100056.53;5098113;28;20024;-83
2022/07/23 03:36:19;;;;;;;36.07;18.70;;;;;;;16.20;90.18;100053.41;5097676;28;20453;-83
2022/07/23 03:38:44;;;;;;;39.80;19.23;;;;;;;16.06;89.82;100047.00;5097583;28;20249;-83
2022/07/23 03:41:10;;;;;;;38.57;18.30;;;;;;;16.16;90.39;100057.88;5096415;28;20504;-84
2022/07/23 03:43:35;;;;;;;28.77;14.70;;;;;;;16.19;89.97;100057.25;5097413;28;20302;-84
2022/07/23 03:46:00;;;;;;;29.07;16.13;;;;;;;16.22;89.00;100045.69;5097909;28;20276;-84
2022/07/23 03:48:25;;;;;;;28.38;16.65;;;;;;;16.03;89.41;100058.59;5097917;28;20333;-83
2022/07/23 03:50:51;;;;;;;29.00;17.88;;;;;;;15.97;89.58;100061.38;5097776;28;20020;-84
2022/07/23 03:53:16;;;;;;;32.97;15.70;;;;;;;16.01;89.97;100060.78;5097180;28;20057;-83
2022/07/23 03:55:41;;;;;;;48.30;21.00;;;;;;;16.06;89.90;100069.00;5097850;28;20134;-83
2022/07/23 03:58:07;;;;;;;36.60;16.67;;;;;;;16.23;89.94;100063.00;5097248;28;20256;-84
2022/07/23 04:00:32;;;;;;;29.83;18.08;;;;;;;16.13;90.09;100069.44;5097316;28;20782;-84
2022/07/23 04:02:57;;;;;;;38.72;19.80;;;;;;;16.18;90.92;100066.63;5098132;28;20088;-83
2022/07/23 04:05:23;;;;;;;41.92;20.20;;;;;;;16.25;91.30;100068.22;5099332;28;20020;-83
2022/07/23 04:07:48;;;;;;;28.02;16.33;;;;;;;16.41;91.49;100057.81;5097970;28;20441;-83
2022/07/23 04:10:13;;;;;;;31.80;15.27;;;;;;;16.51;91.02;100065.91;5097297;28;20032;-83
2022/07/23 04:12:38;;;;;;;50.73;16.97;;;;;;;16.59;90.45;100069.94;5097150;28;20265;-83
2022/07/23 04:15:06;;;;;;;39.33;17.17;;;;;;;16.64;91.07;100061.59;5096881;28;20248;-84
2022/07/23 04:17:31;;;;;;;56.00;20.40;;;;;;;16.68;91.02;100070.88;5096956;28;20028;-84
2022/07/23 04:19:57;;;;;;;37.33;14.87;;;;;;;16.75;91.22;100069.69;5097197;28;20028;-84
2022/07/23 04:22:22;;;;;;;66.22;18.52;;;;;;;16.96;89.47;100072.13;5096866;28;20257;-84
2022/07/23 04:24:49;;;;;;;33.77;17.23;;;;;;;16.90;89.65;100072.19;5097468;28;20028;-84
2022/07/23 04:27:14;;;;;;;35.50;18.35;;;;;;;17.07;89.66;100070.81;5097017;28;20621;-84
2022/07/23 04:29:39;;;;;;;80.40;22.33;;;;;;;17.04;88.92;100063.19;5096518;28;20028;-84
2022/07/23 04:32:05;;;;;;;43.13;19.40;;;;;;;17.03;89.58;100064.28;5096538;28;20331;-84
2022/07/23 04:34:30;;;;;;;33.47;17.75;;;;;;;17.04;89.65;100066.72;5096762;28;20248;-84
2022/07/23 04:36:55;;;;;;;37.13;17.37;;;;;;;17.17;88.83;100066.31;5096397;28;20468;-84
2022/07/23 04:39:21;;;;;;;51.08;20.35;;;;;;;17.00;88.68;100073.16;5096383;28;20245;-84
2022/07/23 04:41:46;;;;;;;158.52;27.42;;;;;;;16.82;89.98;100081.13;5096320;28;20027;-84
2022/07/23 04:44:11;;;;;;;33.10;14.77;;;;;;;16.54;90.29;100083.75;5096528;28;20038;-84
2022/07/23 04:46:37;;;;;;;109.57;22.33;;;;;;;16.51;91.16;100092.63;5096835;28;20024;-84
2022/07/23 04:49:02;;;;;;;61.30;15.80;;;;;;;16.49;91.17;100103.09;5096621;28;20275;-84
2022/07/23 04:51:28;;;;;;;62.27;20.73;;;;;;;16.61;91.54;100106.22;5095848;28;20351;-84
2022/07/23 04:53:54;;;;;;;87.28;20.70;;;;;;;16.69;90.55;100102.81;5096808;28;20326;-84
2022/07/23 04:56:19;;;;;;;83.47;18.35;;;;;;;16.73;90.83;100110.47;5096104;28;20024;-84
2022/07/23 04:58:45;;;;;;;95.90;17.37;;;;;;;16.54;91.08;100106.59;5096553;28;20453;-84
2022/07/23 05:01:10;;;;;;;51.83;14.05;;;;;;;16.64;90.78;100122.13;5095965;28;20248;-83
2022/07/23 05:03:35;;;;;;;194.40;25.48;;;;;;;16.70;90.49;100114.63;5096332;28;20028;-83
2022/07/23 05:06:00;;;;;;;45.97;17.42;;;;;;;16.71;90.83;100116.28;5095857;28;20457;-83
2022/07/23 05:08:26;;;;;;;111.10;18.95;;;;;;;16.72;90.02;100111.59;5096344;28;20035;-83
2022/07/23 05:10:51;;;;;;;28.05;16.02;;;;;;;16.69;90.86;100122.06;5095761;28;20016;-83
2022/07/23 05:13:17;;;;;;;36.38;14.27;;;;;;;16.82;89.49;100121.63;5095542;28;20044;-84
2022/07/23 05:15:44;;;;;;;28.63;14.40;;;;;;;16.68;91.42;100122.34;5094414;28;20024;-83
2022/07/23 05:18:09;;;;;;;41.85;18.80;;;;;;;16.88;90.80;100118.47;5095478;28;20024;-84
2022/07/23 05:20:34;;;;;;;21.13;12.98;;;;;;;17.07;89.71;100117.63;5095792;28;20028;-84
2022/07/23 05:23:00;;;;;;;21.10;11.40;;;;;;;17.22;88.23;100113.84;5095852;28;20047;-84
2022/07/23 05:25:25;;;;;;;23.65;13.52;;;;;;;17.23;88.15;100122.91;5095539;28;20031;-84
2022/07/23 05:27:51;;;;;;;39.10;16.38;;;;;;;17.26;87.23;100120.41;5094768;28;20046;-84
2022/07/23 05:30:16;;;;;;;27.10;16.13;;;;;;;17.20;88.40;100123.53;5095843;28;20024;-84
2022/07/23 05:32:41;;;;;;;34.05;18.05;;;;;;;17.05;87.63;100128.13;5095613;28;20024;-84
2022/07/23 05:35:07;;;;;;;52.50;19.75;;;;;;;17.05;87.12;100125.38;5095784;28;20028;-84
2022/07/23 05:37:33;;;;;;;43.53;18.95;;;;;;;17.05;86.92;100128.13;5095704;28;20072;-84
2022/07/23 05:40:04;;;;;;;31.27;18.13;;;;;;;17.22;86.43;100135.91;5094845;28;20032;-84
2022/07/23 05:42:29;;;;;;;28.05;15.60;;;;;;;17.36;85.40;100135.13;5095759;28;20024;-84
2022/07/23 05:44:54;;;;;;;43.88;22.65;;;;;;;17.12;86.67;100136.88;5095122;28;20035;-82
2022/07/23 05:47:19;;;;;;;41.70;21.07;;;;;;;17.15;86.63;100152.81;5095217;28;20047;-83
2022/07/23 05:49:45;;;;;;;36.37;18.23;;;;;;;17.19;86.90;100147.50;5094609;28;20288;-83
2022/07/23 05:52:10;;;;;;;30.67;18.30;;;;;;;17.14;86.55;100144.84;5094870;28;20579;-84
2022/07/23 05:54:35;;;;;;;35.30;18.43;;;;;;;17.31;86.74;100143.47;5095545;28;20330;-84
2022/07/23 05:57:01;;;;;;;36.70;21.15;;;;;;;17.24;87.00;100144.69;5094989;28;20728;-83
2022/07/23 05:59:26;;;;;;;42.45;21.23;;;;;;;17.12;87.31;100145.16;5094826;28;20069;-83
2022/07/23 06:01:51;;;;;;;43.80;23.20;;;;;;;17.08;86.67;100141.31;5094256;28;20119;-84
2022/07/23 06:04:16;;;;;;;32.20;20.30;;;;;;;17.13;87.76;100143.19;5095102;28;20252;-84
2022/07/23 06:06:42;;;;;;;38.07;21.03;;;;;;;17.29;87.22;100142.97;5094916;28;20255;-84
2022/07/23 06:09:07;;;;;;;39.00;20.13;;;;;;;17.33;87.50;100144.78;5094825;28;20272;-83
2022/07/23 06:11:33;;;;;;;38.80;22.60;;;;;;;17.33;86.98;100146.75;5094469;28;20280;-84
2022/07/23 06:13:58;;;;;;;37.28;18.92;;;;;;;17.42;86.01;100141.34;5094661;28;20111;-84
2022/07/23 06:16:23;;;;;;;32.40;19.23;;;;;;;17.53;86.60;100151.09;5094765;28;20028;-84
2022/07/23 06:18:48;;;;;;;35.17;21.33;;;;;;;17.46;86.52;100148.72;5094830;28;20271;-84
2022/07/23 06:21:14;;;;;;;32.17;20.63;;;;;;;17.53;85.96;100159.38;5094017;28;20060;-84
2022/07/23 06:23:39;;;;;;;28.60;17.90;;;;;;;17.57;85.82;100163.16;5094714;28;20245;-84
2022/07/23 06:26:04;;;;;;;33.03;17.23;;;;;;;17.71;85.43;100159.59;5094617;28;20345;-84
2022/07/23 06:28:29;;;;;;;27.52;18.00;;;;;;;17.97;84.46;100159.13;5094747;28;20059;-83
2022/07/23 06:30:55;;;;;;;35.20;21.73;;;;;;;18.04;82.78;100162.28;5094655;28;20043;-84
2022/07/23 06:33:20;;;;;;;31.73;18.93;;;;;;;17.97;82.31;100161.88;5094617;28;20252;-84
2022/07/23 06:35:45;;;;;;;34.78;18.52;;;;;;;18.02;82.86;100164.53;5094573;28;20264;-84
2022/07/23 06:38:11;;;;;;;30.65;19.95;;;;;;;17.76;84.55;100166.97;5093973;28;20020;-84
2022/07/23 06:40:36;;;;;;;33.22;18.23;;;;;;;17.70;84.63;100167.03;5094545;28;20162;-84
2022/07/23 06:43:01;;;;;;;37.33;20.38;;;;;;;17.89;84.72;100166.16;5095026;28;20020;-84
2022/07/23 06:45:27;;;;;;;33.33;19.57;;;;;;;17.84;83.33;100161.53;5094656;28;20026;-84
2022/07/23 06:47:52;;;;;;;32.42;18.23;;;;;;;17.74;84.49;100167.25;5092379;28;20268;-84
2022/07/23 06:50:17;;;;;;;32.90;18.83;;;;;;;17.94;83.74;100173.53;5094427;28;20106;-84
2022/07/23 06:52:43;;;;;;;30.80;19.80;;;;;;;18.13;82.72;100170.66;5092206;28;20296;-84
2022/07/23 06:55:09;;;;;;;33.72;20.70;;;;;;;18.14;82.96;100174.25;5092456;28;20024;-83
2022/07/23 06:57:34;;;;;;;35.15;19.83;;;;;;;18.20;82.54;100173.84;5094835;28;20081;-84
2022/07/23 06:59:59;;;;;;;32.13;18.60;;;;;;;18.36;82.28;100178.25;5094733;28;20391;-84
2022/07/23 07:02:25;;;;;;;29.57;17.70;;;;;;;18.48;82.45;100178.56;5095810;28;20416;-84
2022/07/23 07:04:50;;;;;;;30.07;20.27;;;;;;;18.35;81.18;100184.88;5096668;28;20309;-83
2022/07/23 07:07:15;;;;;;;31.02;18.23;;;;;;;18.33;81.72;100192.69;5098392;28;20260;-84
2022/07/23 07:09:40;;;;;;;31.90;20.17;;;;;;;18.50;81.92;100186.53;5076125;28;20083;-84
2022/07/23 07:12:06;;;;;;;35.53;17.73;;;;;;;18.70;81.62;100188.03;5077552;28;20261;-84
2022/07/23 07:14:31;;;;;;;32.53;18.83;;;;;;;18.75;80.58;100181.59;5078274;28;20781;-83
2022/07/23 07:16:56;;;;;;;28.73;17.08;;;;;;;18.84;79.58;100181.63;5078110;28;20024;-84
2022/07/23 07:19:22;;;;;;;27.00;16.90;;;;;;;18.76;79.32;100189.53;5077611;28;20370;-83
2022/07/23 07:21:47;;;;;;;33.93;18.93;;;;;;;18.71;79.60;100186.91;5070372;28;20260;-83
2022/07/23 07:24:12;;;;;;;30.30;17.00;;;;;;;18.78;80.05;100186.47;5073040;28;20242;-84
2022/07/23 07:26:39;;;;;;;31.20;19.67;;;;;;;18.64;80.85;100180.97;5071661;28;20032;-83
2022/07/23 07:29:04;;;;;;;29.42;20.13;;;;;;;18.73;80.68;100184.63;5074160;28;20689;-84
2022/07/23 07:31:30;;;;;;;26.95;17.10;;;;;;;18.87;78.38;100186.56;5082812;28;20052;-83
2022/07/23 07:33:56;;;;;;;35.43;19.53;;;;;;;18.82;78.47;100197.72;5098049;28;20342;-85
2022/07/23 07:36:22;;;;;;;31.13;20.27;;;;;;;18.90;80.22;100196.97;5087840;28;20274;-84
2022/07/23 07:38:47;;;;;;;39.13;19.20;;;;;;;19.05;79.28;100195.81;5076051;28;20024;-84
2022/07/23 07:41:12;;;;;;;29.70;18.00;;;;;;;19.02;78.01;100201.94;5074986;28;20031;-84
2022/07/23 07:43:38;;;;;;;38.97;20.13;;;;;;;19.06;78.36;100196.63;5075362;28;20324;-84
2022/07/23 07:46:04;;;;;;;29.57;19.23;;;;;;;19.02;80.26;100202.78;5077118;28;20033;-84
2022/07/23 07:48:29;;;;;;;29.02;18.00;;;;;;;18.98;78.98;100201.75;5076900;28;20273;-84
2022/07/23 07:50:54;;;;;;;28.42;16.77;;;;;;;19.39;77.91;100206.66;5076969;28;20453;-83
2022/07/23 07:53:20;;;;;;;33.72;18.20;;;;;;;19.83;76.14;100206.94;5072758;28;20036;-81
2022/07/23 07:55:45;;;;;;;26.60;17.98;;;;;;;19.93;75.13;100200.34;5071521;28;20032;-84
2022/07/23 07:58:10;;;;;;;30.42;19.33;;;;;;;19.75;74.75;100202.19;5071036;28;20025;-80
2022/07/23 08:00:36;;;;;;;27.67;19.43;;;;;;;19.91;74.11;100203.38;5075001;28;20453;-84
2022/07/23 08:03:01;;;;;;;29.08;17.33;;;;;;;20.12;73.47;100207.59;5070883;28;20249;-83
2022/07/23 08:05:28;;;;;;;27.37;17.43;;;;;;;20.01;72.81;100204.25;5071241;28;20044;-84
2022/07/23 08:07:58;;;;;;;31.90;18.80;;;;;;;20.11;73.78;100212.31;5070952;28;20596;-83
2022/07/23 08:10:26;;;;;;;29.08;17.92;;;;;;;20.14;74.67;100213.63;5080273;28;20027;-83
2022/07/23 08:12:53;;;;;;;38.65;17.90;;;;;;;20.14;74.40;100216.38;5090272;28;20396;-83
2022/07/23 08:15:22;;;;;;;29.60;19.05;;;;;;;20.18;73.69;100223.75;5091134;28;20024;-84
2022/07/23 08:17:48;;;;;;;28.15;18.25;;;;;;;19.94;73.19;100213.84;5090975;28;20360;-83
2022/07/23 08:20:16;;;;;;;28.02;17.85;;;;;;;19.86;74.81;100228.44;5081316;28;20029;-83
2022/07/23 08:22:55;;;;;;;29.13;16.35;;;;;;;19.92;74.44;100227.16;5070438;28;20484;-78
2022/07/23 08:25:23;;;;;;;26.15;17.40;;;;;;;20.16;74.83;100230.72;5071148;28;20068;-84
2022/07/23 08:27:49;;;;;;;23.75;17.08;;;;;;;20.00;74.15;100227.53;5070871;28;20021;-84
2022/07/23 08:30:16;;;;;;;25.27;17.25;;;;;;;20.14;74.82;100233.81;5074070;28;20036;-83
2022/07/23 08:32:50;;;;;;;21.92;17.17;;;;;;;20.25;73.22;100228.00;5070883;28;20036;-83
2022/07/23 08:35:16;;;;;;;26.15;15.85;;;;;;;20.39;72.98;100228.72;5071034;28;20025;-84
2022/07/23 08:37:42;;;;;;;20.63;14.00;;;;;;;20.28;72.01;100233.69;5071052;28;20079;-83
2022/07/23 08:40:08;;;;;;;25.65;16.83;;;;;;;20.24;71.54;100243.00;5077122;28;20062;-84
2022/07/23 08:42:35;;;;;;;26.45;16.10;;;;;;;20.10;70.79;100234.75;5091180;28;20020;-83
2022/07/23 08:45:02;;;;;;;26.95;14.88;;;;;;;20.06;71.66;100232.63;5091093;28;20036;-82
2022/07/23 08:47:28;;;;;;;18.70;14.35;;;;;;;20.17;70.49;100235.97;5072444;28;20028;-83
2022/07/23 08:49:53;;;;;;;22.63;15.75;;;;;;;20.22;71.38;100236.94;5071688;28;20051;-83
2022/07/23 08:52:19;;;;;;;24.88;15.27;;;;;;;20.36;69.98;100234.88;5070016;28;20453;-82
2022/07/23 08:54:44;;;;;;;19.65;13.63;;;;;;;20.24;68.29;100231.91;5070885;28;20420;-84
2022/07/23 08:57:09;;;;;;;18.60;14.02;;;;;;;20.63;68.63;100240.50;5069638;28;20515;-78
2022/07/23 08:59:35;;;;;;;21.65;13.90;;;;;;;20.45;65.45;100245.97;5078593;28;20461;-84
2022/07/23 09:02:00;;;;;;;20.23;14.60;;;;;;;20.80;65.93;100241.69;5069220;28;20024;-82
2022/07/23 09:04:25;;;;;;;25.67;14.25;;;;;;;20.94;66.03;100241.53;5069595;28;20352;-83
2022/07/23 09:06:51;;;;;;;19.60;13.95;;;;;;;20.87;66.53;100251.13;5069499;28;20372;-83
2022/07/23 09:09:20;;;;;;;20.90;15.82;;;;;;;20.95;65.47;100249.50;5072431;28;20023;-83
2022/07/23 09:11:47;;;;;;;22.35;16.05;;;;;;;20.90;66.23;100251.63;5090072;28;20040;-84
2022/07/23 09:14:12;;;;;;;20.55;14.43;;;;;;;20.88;65.02;100252.78;5089516;28;20024;-82
2022/07/23 09:16:37;;;;;;;22.30;14.43;;;;;;;20.78;63.69;100253.09;5089670;28;20530;-84
2022/07/23 09:19:05;;;;;;;19.10;14.18;;;;;;;21.21;63.42;100253.50;5089217;28;20028;-84
2022/07/23 09:21:38;;;;;;;20.30;14.98;;;;;;;21.33;62.66;100248.13;5087439;28;20085;-82
2022/07/23 09:24:07;;;;;;;23.17;14.85;;;;;;;21.34;61.04;100249.75;5089868;28;20052;-84
2022/07/23 09:26:40;;;;;;;16.40;13.27;;;;;;;21.61;61.45;100246.13;5089064;28;20103;-84
2022/07/23 09:29:10;;;;;;;16.65;13.70;;;;;;;21.62;61.03;100247.78;5089922;28;20031;-84
2022/07/23 09:31:53;;;;;;;18.42;14.43;;;;;;;21.88;61.50;100260.81;5088223;28;20048;-83
2022/07/23 09:34:20;;;;;;;18.85;16.38;;;;;;;22.20;58.85;100253.03;5088895;28;20062;-82
2022/07/23 09:36:47;;;;;;;22.10;15.77;;;;;;;22.20;58.11;100255.81;5089046;28;20035;-84
2022/07/23 09:39:14;;;;;;;16.65;14.02;;;;;;;21.88;60.28;100249.69;5088878;28;20032;-79
2022/07/23 09:41:45;;;;;;;20.63;13.07;;;;;;;21.95;59.53;100255.53;5089639;28;20020;-84
2022/07/23 09:44:16;;;;;;;18.63;14.77;;;;;;;22.16;58.24;100250.09;5089066;28;20024;-78
2022/07/23 09:46:43;;;;;;;14.98;11.27;;;;;;;22.45;58.24;100244.09;5077750;28;20025;-84
2022/07/23 09:49:17;;;;;;;20.95;12.32;;;;;;;21.89;56.99;100251.31;5071570;28;20032;-84
2022/07/23 09:51:57;;;;;;;19.25;12.68;;;;;;;22.18;59.23;100241.44;5088558;28;20373;-83
2022/07/23 09:54:36;;;;;;;18.90;16.05;;;;;;;22.53;57.91;100237.69;5089331;28;20020;-84
2022/07/23 09:57:14;;;;;;;21.17;16.55;;;;;;;22.71;56.61;100240.41;5088765;28;20483;-83
2022/07/23 09:59:40;;;;;;;19.77;16.15;;;;;;;22.90;55.96;100237.19;5083614;28;20457;-83
2022/07/23 10:02:07;;;;;;;21.17;18.00;;;;;;;22.96;55.46;100232.22;5069919;28;20036;-82
2022/07/23 10:04:34;;;;;;;20.17;15.98;;;;;;;23.11;56.30;100230.78;5068782;28;20031;-83
2022/07/23 10:07:01;;;;;;;18.30;15.75;;;;;;;23.19;54.58;100231.88;5068722;28;20055;-83
2022/07/23 10:09:30;;;;;;;20.33;17.38;;;;;;;23.11;54.91;100238.34;5071499;28;20063;-84
2022/07/23 10:12:05;;;;;;;22.70;17.55;;;;;;;23.01;55.67;100234.78;5068423;28;20037;-84
2022/07/23 10:14:32;;;;;;;18.95;15.93;;;;;;;22.86;57.62;100237.00;5068944;28;20020;-83
2022/07/23 10:16:58;;;;;;;22.10;14.93;;;;;;;23.16;54.86;100241.72;5088993;28;20115;-84
2022/07/23 10:19:25;;;;;;;16.27;13.73;;;;;;;23.31;54.33;100239.44;5087625;28;20107;-84
2022/07/23 10:21:55;;;;;;;17.70;14.45;;;;;;;23.41;53.35;100244.59;5088816;28;20027;-83
2022/07/23 10:24:29;;;;;;;19.50;15.18;;;;;;;23.36;53.52;100230.91;5088808;28;20396;-84
2022/07/23 10:27:01;;;;;;;;;;;;;;;23.77;54.08;100233.16;5088701;28;20028;-84
2022/07/23 10:30:00;;;;;;;17.95;14.88;;;;;;;23.86;53.57;100230.31;5089417;28;19945;-84
2022/07/23 10:32:43;;;;;;;19.58;14.32;;;;;;;23.98;53.48;100237.84;5067347;28;20121;-84
2022/07/23 10:35:09;;;;;;;14.25;12.68;;;;;;;24.08;52.39;100237.38;5067850;28;20051;-84
2022/07/23 10:37:45;;;;;;;16.03;13.27;;;;;;;24.07;54.30;100235.78;5072761;28;20481;-84
2022/07/23 10:40:13;;;;;;;17.23;13.57;;;;;;;23.87;52.43;100243.88;5082987;28;20032;-84
2022/07/23 10:42:40;;;;;;;16.50;12.80;;;;;;;23.95;52.56;100238.53;5093123;28;20040;-84
2022/07/23 10:45:32;;;;;;;21.25;11.35;;;;;;;23.98;51.25;100238.66;5093290;28;20093;-84
2022/07/23 10:48:18;;;;;;;13.45;10.90;;;;;;;23.88;51.11;100237.13;5078131;28;20124;-84
2022/07/23 10:51:05;;;;;;;12.40;10.40;;;;;;;23.97;50.44;100236.22;5076788;28;20030;-83
2022/07/23 10:53:53;;;;;;;17.55;9.93;;;;;;;23.55;51.00;100240.75;5086721;28;20373;-85
2022/07/23 10:56:55;;;;;;;12.40;8.50;;;;;;;23.86;51.47;100231.09;5090502;28;20047;-83
2022/07/23 10:59:21;;;;;;;10.73;8.95;;;;;;;24.09;50.53;100225.09;5078071;28;20024;-84
2022/07/23 11:01:47;;;;;;;14.95;8.57;;;;;;;23.67;49.65;100226.91;5092488;28;20492;-84
2022/07/23 11:04:13;;;;;;;13.27;9.63;;;;;;;23.47;49.99;100225.78;5091861;28;20020;-84
2022/07/23 11:06:50;;;;;;;10.32;8.48;;;;;;;24.06;50.83;100228.59;5091552;28;20342;-84
2022/07/23 11:09:26;;;;;;;11.10;8.90;;;;;;;24.59;48.72;100227.13;5091015;28;20035;-81